sensor_id;sensor_type;location;lat;lon;timestamp;temperature;humidity
30764;DHT22;17497;51.476;7.770;2023-04-03T00:00:04;1.50;99.90
30764;DHT22;17497;51.476;7.770;2023-04-03T00:02:31;1.50;99.90
30764;DHT22;17497;51.476;7.770;2023-04-03T00:04:58;1.50;99.90
30764;DHT22;17497;51.476;7.770;2023-04-03T00:07:25;1.50;99.90
30764;DHT22;17497;51.476;7.770;2023-04-03T00:09:52;1.40;99.90
30764;DHT22;17497;51.476;7.770;2023-04-03T00:12:18;1.40;99.90
30764;DHT22;17497;51.476;7.770;2023-04-03T00:14:45;1.40;99.90
30764;DHT22;17497;51.476;7.770;2023-04-03T00:17:12;1.30;99.90
30764;DHT22;17497;51.476;7.770;2023-04-03T00:19:38;1.30;99.90
30764;DHT22;17497;51.476;7.770;2023-04-03T00:22:05;1.30;99.90
30764;DHT22;17497;51.476;7.770;2023-04-03T00:24:32;1.30;99.90
30764;DHT22;17497;51.476;7.770;2023-04-03T00:26:58;1.30;99.90
30764;DHT22;17497;51.476;7.770;2023-04-03T00:29:28;1.30;99.90
30764;DHT22;17497;51.476;7.770;2023-04-03T00:31:54;1.40;99.90
30764;DHT22;17497;51.476;7.770;2023-04-03T00:34:21;1.30;99.90
30764;DHT22;17497;51.476;7.770;2023-04-03T00:36:47;1.40;99.90
30764;DHT22;17497;51.476;7.770;2023-04-03T00:39:14;1.40;99.90
30764;DHT22;17497;51.476;7.770;2023-04-03T00:41:41;1.30;99.90
30764;DHT22;17497;51.476;7.770;2023-04-03T00:44:19;1.40;99.90
30764;DHT22;17497;51.476;7.770;2023-04-03T00:46:46;1.40;99.90
30764;DHT22;17497;51.476;7.770;2023-04-03T00:49:12;1.40;99.90
30764;DHT22;17497;51.476;7.770;2023-04-03T00:51:39;1.40;99.90
30764;DHT22;17497;51.476;7.770;2023-04-03T00:54:06;1.50;99.90
30764;DHT22;17497;51.476;7.770;2023-04-03T00:56:33;1.50;99.90
30764;DHT22;17497;51.476;7.770;2023-04-03T00:59:13;1.60;99.90
30764;DHT22;17497;51.476;7.770;2023-04-03T01:01:41;1.60;99.90
30764;DHT22;17497;51.476;7.770;2023-04-03T01:06:55;1.80;99.90
30764;DHT22;17497;51.476;7.770;2023-04-03T01:09:22;1.80;99.90
30764;DHT22;17497;51.476;7.770;2023-04-03T01:11:49;1.80;99.90
30764;DHT22;17497;51.476;7.770;2023-04-03T01:14:16;1.80;99.90
30764;DHT22;17497;51.476;7.770;2023-04-03T01:16:51;1.80;99.90
30764;DHT22;17497;51.476;7.770;2023-04-03T01:19:18;1.80;99.90
30764;DHT22;17497;51.476;7.770;2023-04-03T01:24:32;1.80;99.90
30764;DHT22;17497;51.476;7.770;2023-04-03T01:27:00;1.70;99.90
30764;DHT22;17497;51.476;7.770;2023-04-03T01:29:27;1.70;99.90
30764;DHT22;17497;51.476;7.770;2023-04-03T01:31:55;1.70;99.90
30764;DHT22;17497;51.476;7.770;2023-04-03T01:34:22;1.70;99.90
30764;DHT22;17497;51.476;7.770;2023-04-03T01:36:50;1.60;99.90
30764;DHT22;17497;51.476;7.770;2023-04-03T01:39:17;1.60;99.90
30764;DHT22;17497;51.476;7.770;2023-04-03T01:41:44;1.70;99.90
30764;DHT22;17497;51.476;7.770;2023-04-03T01:44:11;1.60;99.90
30764;DHT22;17497;51.476;7.770;2023-04-03T01:46:38;1.70;99.90
30764;DHT22;17497;51.476;7.770;2023-04-03T01:49:05;1.70;99.90
30764;DHT22;17497;51.476;7.770;2023-04-03T01:51:32;1.70;99.90
30764;DHT22;17497;51.476;7.770;2023-04-03T01:54:00;1.60;99.90
30764;DHT22;17497;51.476;7.770;2023-04-03T01:56:26;1.60;99.90
30764;DHT22;17497;51.476;7.770;2023-04-03T01:58:53;1.60;99.90
30764;DHT22;17497;51.476;7.770;2023-04-03T02:01:20;1.60;99.90
30764;DHT22;17497;51.476;7.770;2023-04-03T02:03:47;1.60;99.90
30764;DHT22;17497;51.476;7.770;2023-04-03T02:06:14;1.70;99.90
30764;DHT22;17497;51.476;7.770;2023-04-03T02:08:41;1.70;99.90
30764;DHT22;17497;51.476;7.770;2023-04-03T02:11:08;1.70;99.90
30764;DHT22;17497;51.476;7.770;2023-04-03T02:13:34;1.70;99.90
30764;DHT22;17497;51.476;7.770;2023-04-03T02:16:08;1.70;99.90
30764;DHT22;17497;51.476;7.770;2023-04-03T02:18:37;1.60;99.90
30764;DHT22;17497;51.476;7.770;2023-04-03T02:21:05;1.70;99.90
30764;DHT22;17497;51.476;7.770;2023-04-03T02:23:32;1.60;99.90
30764;DHT22;17497;51.476;7.770;2023-04-03T02:26:09;1.70;99.90
30764;DHT22;17497;51.476;7.770;2023-04-03T02:28:36;1.60;99.90
30764;DHT22;17497;51.476;7.770;2023-04-03T02:31:04;1.60;99.90
30764;DHT22;17497;51.476;7.770;2023-04-03T02:33:31;1.60;99.90
30764;DHT22;17497;51.476;7.770;2023-04-03T02:35:58;1.60;99.90
30764;DHT22;17497;51.476;7.770;2023-04-03T02:38:25;1.60;99.90
30764;DHT22;17497;51.476;7.770;2023-04-03T02:40:52;1.50;99.90
30764;DHT22;17497;51.476;7.770;2023-04-03T02:43:19;1.50;99.90
30764;DHT22;17497;51.476;7.770;2023-04-03T02:45:46;1.50;99.90
30764;DHT22;17497;51.476;7.770;2023-04-03T02:48:13;1.50;99.90
30764;DHT22;17497;51.476;7.770;2023-04-03T02:50:41;1.40;99.90
30764;DHT22;17497;51.476;7.770;2023-04-03T02:53:07;1.40;99.90
30764;DHT22;17497;51.476;7.770;2023-04-03T02:55:34;1.40;99.90
30764;DHT22;17497;51.476;7.770;2023-04-03T02:58:01;1.40;99.90
30764;DHT22;17497;51.476;7.770;2023-04-03T03:00:27;1.30;99.90
30764;DHT22;17497;51.476;7.770;2023-04-03T03:02:54;1.30;99.90
30764;DHT22;17497;51.476;7.770;2023-04-03T03:05:21;1.30;99.90
30764;DHT22;17497;51.476;7.770;2023-04-03T03:07:48;1.20;99.90
30764;DHT22;17497;51.476;7.770;2023-04-03T03:10:15;1.20;99.90
30764;DHT22;17497;51.476;7.770;2023-04-03T03:12:41;1.20;99.90
30764;DHT22;17497;51.476;7.770;2023-04-03T03:15:08;1.20;99.90
30764;DHT22;17497;51.476;7.770;2023-04-03T03:17:35;1.20;99.90
30764;DHT22;17497;51.476;7.770;2023-04-03T03:20:03;1.10;99.90
30764;DHT22;17497;51.476;7.770;2023-04-03T03:22:30;1.10;99.90
30764;DHT22;17497;51.476;7.770;2023-04-03T03:24:57;1.10;99.90
30764;DHT22;17497;51.476;7.770;2023-04-03T03:27:24;1.00;99.90
30764;DHT22;17497;51.476;7.770;2023-04-03T03:29:51;1.00;99.90
30764;DHT22;17497;51.476;7.770;2023-04-03T03:32:18;0.90;99.90
30764;DHT22;17497;51.476;7.770;2023-04-03T03:34:44;0.90;99.90
30764;DHT22;17497;51.476;7.770;2023-04-03T03:37:11;0.90;99.90
30764;DHT22;17497;51.476;7.770;2023-04-03T03:39:38;0.90;99.90
30764;DHT22;17497;51.476;7.770;2023-04-03T03:42:05;0.90;99.90
30764;DHT22;17497;51.476;7.770;2023-04-03T03:44:31;0.90;99.90
30764;DHT22;17497;51.476;7.770;2023-04-03T03:46:58;0.90;99.90
30764;DHT22;17497;51.476;7.770;2023-04-03T03:49:25;0.90;99.90
30764;DHT22;17497;51.476;7.770;2023-04-03T03:51:52;0.90;99.90
30764;DHT22;17497;51.476;7.770;2023-04-03T03:54:19;0.90;99.90
30764;DHT22;17497;51.476;7.770;2023-04-03T03:56:46;0.80;99.90
30764;DHT22;17497;51.476;7.770;2023-04-03T03:59:13;0.80;99.90
30764;DHT22;17497;51.476;7.770;2023-04-03T04:01:40;0.80;99.90
30764;DHT22;17497;51.476;7.770;2023-04-03T04:04:06;0.80;99.90
30764;DHT22;17497;51.476;7.770;2023-04-03T04:06:33;0.80;99.90
30764;DHT22;17497;51.476;7.770;2023-04-03T04:09:00;0.80;99.90
30764;DHT22;17497;51.476;7.770;2023-04-03T04:11:27;0.70;99.90
30764;DHT22;17497;51.476;7.770;2023-04-03T04:13:54;0.70;99.90
30764;DHT22;17497;51.476;7.770;2023-04-03T04:16:21;0.70;99.90
30764;DHT22;17497;51.476;7.770;2023-04-03T04:18:47;0.70;99.90
30764;DHT22;17497;51.476;7.770;2023-04-03T04:21:14;0.70;99.90
30764;DHT22;17497;51.476;7.770;2023-04-03T04:23:41;0.60;99.90
30764;DHT22;17497;51.476;7.770;2023-04-03T04:26:15;0.60;99.90
30764;DHT22;17497;51.476;7.770;2023-04-03T04:28:42;0.60;99.90
30764;DHT22;17497;51.476;7.770;2023-04-03T04:31:09;0.60;99.90
30764;DHT22;17497;51.476;7.770;2023-04-03T04:33:35;0.60;99.90
30764;DHT22;17497;51.476;7.770;2023-04-03T04:36:03;0.60;99.90
30764;DHT22;17497;51.476;7.770;2023-04-03T04:38:29;0.60;99.90
30764;DHT22;17497;51.476;7.770;2023-04-03T04:40:56;0.50;99.90
30764;DHT22;17497;51.476;7.770;2023-04-03T04:43:24;0.40;99.90
30764;DHT22;17497;51.476;7.770;2023-04-03T04:46:04;0.40;99.90
30764;DHT22;17497;51.476;7.770;2023-04-03T04:48:32;0.40;99.90
30764;DHT22;17497;51.476;7.770;2023-04-03T04:50:58;0.40;99.90
30764;DHT22;17497;51.476;7.770;2023-04-03T04:53:25;0.40;99.90
30764;DHT22;17497;51.476;7.770;2023-04-03T04:55:54;0.30;99.90
30764;DHT22;17497;51.476;7.770;2023-04-03T04:58:20;0.30;99.90
30764;DHT22;17497;51.476;7.770;2023-04-03T05:00:47;0.30;99.90
30764;DHT22;17497;51.476;7.770;2023-04-03T05:03:14;0.30;99.90
30764;DHT22;17497;51.476;7.770;2023-04-03T05:05:41;0.30;99.90
30764;DHT22;17497;51.476;7.770;2023-04-03T05:08:09;0.30;99.90
30764;DHT22;17497;51.476;7.770;2023-04-03T05:10:36;0.20;99.90
30764;DHT22;17497;51.476;7.770;2023-04-03T05:13:02;0.20;99.90
30764;DHT22;17497;51.476;7.770;2023-04-03T05:15:29;0.20;99.90
30764;DHT22;17497;51.476;7.770;2023-04-03T05:17:56;0.20;99.90
30764;DHT22;17497;51.476;7.770;2023-04-03T05:20:23;0.30;99.90
30764;DHT22;17497;51.476;7.770;2023-04-03T05:22:49;0.30;99.90
30764;DHT22;17497;51.476;7.770;2023-04-03T05:25:16;0.20;99.90
30764;DHT22;17497;51.476;7.770;2023-04-03T05:27:43;0.30;99.90
30764;DHT22;17497;51.476;7.770;2023-04-03T05:30:10;0.30;99.90
30764;DHT22;17497;51.476;7.770;2023-04-03T05:32:37;0.20;99.90
30764;DHT22;17497;51.476;7.770;2023-04-03T05:35:04;0.30;99.90
30764;DHT22;17497;51.476;7.770;2023-04-03T05:37:32;0.40;99.90
30764;DHT22;17497;51.476;7.770;2023-04-03T05:40:02;0.40;99.90
30764;DHT22;17497;51.476;7.770;2023-04-03T05:42:29;0.40;99.90
30764;DHT22;17497;51.476;7.770;2023-04-03T05:44:56;0.50;99.90
30764;DHT22;17497;51.476;7.770;2023-04-03T05:47:23;0.50;99.90
30764;DHT22;17497;51.476;7.770;2023-04-03T05:49:49;0.50;99.90
30764;DHT22;17497;51.476;7.770;2023-04-03T05:52:38;0.60;99.90
30764;DHT22;17497;51.476;7.770;2023-04-03T05:55:05;0.60;99.90
30764;DHT22;17497;51.476;7.770;2023-04-03T05:57:32;0.60;99.90
30764;DHT22;17497;51.476;7.770;2023-04-03T06:00:01;0.70;99.90
30764;DHT22;17497;51.476;7.770;2023-04-03T06:02:27;0.70;99.90
30764;DHT22;17497;51.476;7.770;2023-04-03T06:04:54;0.80;99.90
30764;DHT22;17497;51.476;7.770;2023-04-03T06:07:22;0.80;99.90
30764;DHT22;17497;51.476;7.770;2023-04-03T06:09:50;0.80;99.90
30764;DHT22;17497;51.476;7.770;2023-04-03T06:12:17;0.80;99.90
30764;DHT22;17497;51.476;7.770;2023-04-03T06:14:44;0.90;99.90
30764;DHT22;17497;51.476;7.770;2023-04-03T06:17:11;0.90;99.90
30764;DHT22;17497;51.476;7.770;2023-04-03T06:19:39;0.90;99.90
30764;DHT22;17497;51.476;7.770;2023-04-03T06:22:05;0.90;99.90
30764;DHT22;17497;51.476;7.770;2023-04-03T06:24:32;1.00;99.90
30764;DHT22;17497;51.476;7.770;2023-04-03T06:27:00;1.00;99.90
30764;DHT22;17497;51.476;7.770;2023-04-03T06:29:28;1.00;99.90
30764;DHT22;17497;51.476;7.770;2023-04-03T06:31:55;1.00;99.90
30764;DHT22;17497;51.476;7.770;2023-04-03T06:34:22;1.10;99.90
30764;DHT22;17497;51.476;7.770;2023-04-03T06:39:23;1.10;99.90
30764;DHT22;17497;51.476;7.770;2023-04-03T06:41:50;1.20;99.90
30764;DHT22;17497;51.476;7.770;2023-04-03T06:44:17;1.20;99.90
30764;DHT22;17497;51.476;7.770;2023-04-03T06:46:44;1.30;99.90
30764;DHT22;17497;51.476;7.770;2023-04-03T06:49:13;1.30;99.90
30764;DHT22;17497;51.476;7.770;2023-04-03T06:51:41;1.40;99.90
30764;DHT22;17497;51.476;7.770;2023-04-03T06:54:08;1.40;99.90
30764;DHT22;17497;51.476;7.770;2023-04-03T06:56:35;1.40;99.90
30764;DHT22;17497;51.476;7.770;2023-04-03T06:59:02;1.40;99.90
30764;DHT22;17497;51.476;7.770;2023-04-03T07:01:29;1.40;99.90
30764;DHT22;17497;51.476;7.770;2023-04-03T07:03:58;1.40;99.90
30764;DHT22;17497;51.476;7.770;2023-04-03T07:06:25;1.40;99.90
30764;DHT22;17497;51.476;7.770;2023-04-03T07:08:55;1.50;99.90
30764;DHT22;17497;51.476;7.770;2023-04-03T07:11:22;1.50;99.90
30764;DHT22;17497;51.476;7.770;2023-04-03T07:13:50;1.50;99.90
30764;DHT22;17497;51.476;7.770;2023-04-03T07:16:16;1.60;99.90
30764;DHT22;17497;51.476;7.770;2023-04-03T07:18:44;1.70;99.90
30764;DHT22;17497;51.476;7.770;2023-04-03T07:21:11;1.70;99.90
30764;DHT22;17497;51.476;7.770;2023-04-03T07:23:38;1.70;99.90
30764;DHT22;17497;51.476;7.770;2023-04-03T07:26:04;1.80;99.90
30764;DHT22;17497;51.476;7.770;2023-04-03T07:28:34;1.80;99.90
30764;DHT22;17497;51.476;7.770;2023-04-03T07:31:04;1.80;99.90
30764;DHT22;17497;51.476;7.770;2023-04-03T07:33:32;1.90;99.90
30764;DHT22;17497;51.476;7.770;2023-04-03T07:35:59;1.90;99.90
30764;DHT22;17497;51.476;7.770;2023-04-03T07:38:29;2.00;99.90
30764;DHT22;17497;51.476;7.770;2023-04-03T07:41:00;2.10;99.90
30764;DHT22;17497;51.476;7.770;2023-04-03T07:43:31;2.20;99.90
30764;DHT22;17497;51.476;7.770;2023-04-03T07:45:57;2.20;99.90
30764;DHT22;17497;51.476;7.770;2023-04-03T07:48:25;2.30;99.90
30764;DHT22;17497;51.476;7.770;2023-04-03T07:50:52;2.40;99.90
30764;DHT22;17497;51.476;7.770;2023-04-03T07:53:19;2.50;99.90
30764;DHT22;17497;51.476;7.770;2023-04-03T07:55:46;2.50;99.90
30764;DHT22;17497;51.476;7.770;2023-04-03T07:58:15;2.60;99.90
30764;DHT22;17497;51.476;7.770;2023-04-03T08:00:42;2.60;99.90
30764;DHT22;17497;51.476;7.770;2023-04-03T08:03:16;2.60;99.90
30764;DHT22;17497;51.476;7.770;2023-04-03T08:05:44;2.60;99.90
30764;DHT22;17497;51.476;7.770;2023-04-03T08:08:13;2.60;99.90
30764;DHT22;17497;51.476;7.770;2023-04-03T08:10:40;2.70;99.90
30764;DHT22;17497;51.476;7.770;2023-04-03T08:13:07;2.70;99.90
30764;DHT22;17497;51.476;7.770;2023-04-03T08:15:33;2.80;99.90
30764;DHT22;17497;51.476;7.770;2023-04-03T08:18:00;2.80;99.90
30764;DHT22;17497;51.476;7.770;2023-04-03T08:20:27;2.90;99.90
30764;DHT22;17497;51.476;7.770;2023-04-03T08:22:55;2.90;99.90
30764;DHT22;17497;51.476;7.770;2023-04-03T08:25:21;2.90;99.90
30764;DHT22;17497;51.476;7.770;2023-04-03T08:27:51;2.90;99.90
30764;DHT22;17497;51.476;7.770;2023-04-03T08:30:19;2.90;99.90
30764;DHT22;17497;51.476;7.770;2023-04-03T08:32:47;3.00;99.90
30764;DHT22;17497;51.476;7.770;2023-04-03T08:35:14;3.00;99.90
30764;DHT22;17497;51.476;7.770;2023-04-03T08:37:41;3.00;99.90
30764;DHT22;17497;51.476;7.770;2023-04-03T08:40:12;3.10;99.90
30764;DHT22;17497;51.476;7.770;2023-04-03T08:45:51;3.20;99.90
30764;DHT22;17497;51.476;7.770;2023-04-03T08:48:24;3.20;99.90
30764;DHT22;17497;51.476;7.770;2023-04-03T08:50:56;3.30;99.90
30764;DHT22;17497;51.476;7.770;2023-04-03T08:53:28;3.40;99.90
30764;DHT22;17497;51.476;7.770;2023-04-03T08:55:59;3.50;99.90
30764;DHT22;17497;51.476;7.770;2023-04-03T08:58:28;3.60;99.90
30764;DHT22;17497;51.476;7.770;2023-04-03T09:01:03;3.60;99.90
30764;DHT22;17497;51.476;7.770;2023-04-03T09:03:31;3.70;99.90
30764;DHT22;17497;51.476;7.770;2023-04-03T09:06:12;3.80;99.90
30764;DHT22;17497;51.476;7.770;2023-04-03T09:14:32;3.90;99.90
30764;DHT22;17497;51.476;7.770;2023-04-03T09:16:59;4.00;99.90
30764;DHT22;17497;51.476;7.770;2023-04-03T09:21:57;4.20;99.90
30764;DHT22;17497;51.476;7.770;2023-04-03T09:24:24;4.30;99.90
30764;DHT22;17497;51.476;7.770;2023-04-03T09:26:53;4.40;99.90
30764;DHT22;17497;51.476;7.770;2023-04-03T09:29:22;4.50;99.90
30764;DHT22;17497;51.476;7.770;2023-04-03T09:31:52;4.60;99.90
30764;DHT22;17497;51.476;7.770;2023-04-03T09:34:24;4.70;99.90
30764;DHT22;17497;51.476;7.770;2023-04-03T09:36:57;4.80;99.90
30764;DHT22;17497;51.476;7.770;2023-04-03T09:39:25;4.90;99.90
30764;DHT22;17497;51.476;7.770;2023-04-03T09:41:58;5.00;99.90
30764;DHT22;17497;51.476;7.770;2023-04-03T09:44:26;5.10;99.90
30764;DHT22;17497;51.476;7.770;2023-04-03T09:46:52;5.20;99.90
30764;DHT22;17497;51.476;7.770;2023-04-03T09:49:19;5.30;99.90
30764;DHT22;17497;51.476;7.770;2023-04-03T09:51:46;5.40;99.90
30764;DHT22;17497;51.476;7.770;2023-04-03T09:54:33;5.50;99.90
30764;DHT22;17497;51.476;7.770;2023-04-03T09:57:05;5.70;99.90
30764;DHT22;17497;51.476;7.770;2023-04-03T09:59:33;5.90;99.90
30764;DHT22;17497;51.476;7.770;2023-04-03T10:02:02;6.10;99.90
30764;DHT22;17497;51.476;7.770;2023-04-03T10:04:39;6.30;99.90
30764;DHT22;17497;51.476;7.770;2023-04-03T10:07:28;6.40;99.90
30764;DHT22;17497;51.476;7.770;2023-04-03T10:09:57;6.50;99.90
30764;DHT22;17497;51.476;7.770;2023-04-03T10:12:26;6.60;99.90
30764;DHT22;17497;51.476;7.770;2023-04-03T10:20:52;7.30;99.90
30764;DHT22;17497;51.476;7.770;2023-04-03T10:25:36;7.50;99.90
30764;DHT22;17497;51.476;7.770;2023-04-03T10:28:11;7.70;99.90
30764;DHT22;17497;51.476;7.770;2023-04-03T10:33:31;8.30;99.90
30764;DHT22;17497;51.476;7.770;2023-04-03T10:36:17;8.60;99.90
30764;DHT22;17497;51.476;7.770;2023-04-03T10:38:48;9.00;99.70
30764;DHT22;17497;51.476;7.770;2023-04-03T10:41:28;9.20;99.90
30764;DHT22;17497;51.476;7.770;2023-04-03T10:46:41;9.80;98.40
30764;DHT22;17497;51.476;7.770;2023-04-03T10:49:25;10.20;95.90
30764;DHT22;17497;51.476;7.770;2023-04-03T10:52:02;10.20;93.40
30764;DHT22;17497;51.476;7.770;2023-04-03T10:54:39;10.00;96.80
30764;DHT22;17497;51.476;7.770;2023-04-03T10:57:12;10.20;94.20
30764;DHT22;17497;51.476;7.770;2023-04-03T11:04:48;10.70;93.50
30764;DHT22;17497;51.476;7.770;2023-04-03T11:07:26;11.30;90.80
30764;DHT22;17497;51.476;7.770;2023-04-03T11:09:57;12.00;93.50
30764;DHT22;17497;51.476;7.770;2023-04-03T11:12:33;12.90;87.40
30764;DHT22;17497;51.476;7.770;2023-04-03T11:15:03;13.50;80.90
30764;DHT22;17497;51.476;7.770;2023-04-03T11:17:33;13.70;75.80
30764;DHT22;17497;51.476;7.770;2023-04-03T11:27:44;14.20;74.30
30764;DHT22;17497;51.476;7.770;2023-04-03T11:33:13;14.30;75.40
30764;DHT22;17497;51.476;7.770;2023-04-03T11:35:44;14.30;70.40
30764;DHT22;17497;51.476;7.770;2023-04-03T11:38:15;15.00;72.60
30764;DHT22;17497;51.476;7.770;2023-04-03T11:40:44;15.70;69.20
30764;DHT22;17497;51.476;7.770;2023-04-03T11:43:28;16.40;61.90
30764;DHT22;17497;51.476;7.770;2023-04-03T11:46:00;15.90;59.30
30764;DHT22;17497;51.476;7.770;2023-04-03T11:50:55;15.40;59.10
30764;DHT22;17497;51.476;7.770;2023-04-03T11:55:52;15.60;57.90
30764;DHT22;17497;51.476;7.770;2023-04-03T11:58:21;15.30;63.60
30764;DHT22;17497;51.476;7.770;2023-04-03T12:00:53;15.70;58.30
30764;DHT22;17497;51.476;7.770;2023-04-03T12:05:54;16.60;53.90
30764;DHT22;17497;51.476;7.770;2023-04-03T12:08:28;16.90;61.40
30764;DHT22;17497;51.476;7.770;2023-04-03T12:11:41;17.40;59.10
30764;DHT22;17497;51.476;7.770;2023-04-03T12:16:20;17.90;51.40
30764;DHT22;17497;51.476;7.770;2023-04-03T12:29:21;17.80;50.60
30764;DHT22;17497;51.476;7.770;2023-04-03T12:31:53;18.40;49.30
30764;DHT22;17497;51.476;7.770;2023-04-03T12:44:56;16.80;49.80
30764;DHT22;17497;51.476;7.770;2023-04-03T12:47:28;17.70;48.40
30764;DHT22;17497;51.476;7.770;2023-04-03T12:49:55;17.30;49.20
30764;DHT22;17497;51.476;7.770;2023-04-03T12:52:34;17.10;49.20
30764;DHT22;17497;51.476;7.770;2023-04-03T12:55:03;17.20;49.50
30764;DHT22;17497;51.476;7.770;2023-04-03T12:57:33;17.50;50.00
30764;DHT22;17497;51.476;7.770;2023-04-03T13:00:00;17.00;50.20
30764;DHT22;17497;51.476;7.770;2023-04-03T13:02:44;16.20;50.60
30764;DHT22;17497;51.476;7.770;2023-04-03T13:05:15;15.80;51.50
30764;DHT22;17497;51.476;7.770;2023-04-03T13:07:42;15.50;52.50
30764;DHT22;17497;51.476;7.770;2023-04-03T13:15:17;16.60;50.80
30764;DHT22;17497;51.476;7.770;2023-04-03T13:17:44;16.00;51.00
30764;DHT22;17497;51.476;7.770;2023-04-03T13:20:17;16.40;53.10
30764;DHT22;17497;51.476;7.770;2023-04-03T13:22:49;16.80;50.90
30764;DHT22;17497;51.476;7.770;2023-04-03T13:25:17;17.40;50.00
30764;DHT22;17497;51.476;7.770;2023-04-03T13:27:45;17.10;49.40
30764;DHT22;17497;51.476;7.770;2023-04-03T13:30:53;17.10;50.70
30764;DHT22;17497;51.476;7.770;2023-04-03T13:33:17;17.10;49.70
30764;DHT22;17497;51.476;7.770;2023-04-03T13:35:45;17.40;52.10
30764;DHT22;17497;51.476;7.770;2023-04-03T13:40:52;16.90;49.10
30764;DHT22;17497;51.476;7.770;2023-04-03T13:43:21;16.90;48.80
30764;DHT22;17497;51.476;7.770;2023-04-03T13:48:24;17.50;49.40
30764;DHT22;17497;51.476;7.770;2023-04-03T13:50:53;18.10;49.40
30764;DHT22;17497;51.476;7.770;2023-04-03T13:53:19;17.40;48.60
30764;DHT22;17497;51.476;7.770;2023-04-03T13:58:25;17.90;46.20
30764;DHT22;17497;51.476;7.770;2023-04-03T14:01:09;17.00;48.00
30764;DHT22;17497;51.476;7.770;2023-04-03T14:03:41;17.20;48.30
30764;DHT22;17497;51.476;7.770;2023-04-03T14:06:10;17.60;48.90
30764;DHT22;17497;51.476;7.770;2023-04-03T14:08:37;18.10;46.00
30764;DHT22;17497;51.476;7.770;2023-04-03T14:11:16;18.50;46.70
30764;DHT22;17497;51.476;7.770;2023-04-03T14:13:45;18.60;49.10
30764;DHT22;17497;51.476;7.770;2023-04-03T14:16:16;19.10;47.40
30764;DHT22;17497;51.476;7.770;2023-04-03T14:18:44;20.00;43.00
30764;DHT22;17497;51.476;7.770;2023-04-03T14:21:13;20.00;42.30
30764;DHT22;17497;51.476;7.770;2023-04-03T14:23:40;19.10;44.80
30764;DHT22;17497;51.476;7.770;2023-04-03T14:26:16;19.40;45.20
30764;DHT22;17497;51.476;7.770;2023-04-03T14:28:45;19.80;44.60
30764;DHT22;17497;51.476;7.770;2023-04-03T14:31:12;20.40;45.70
30764;DHT22;17497;51.476;7.770;2023-04-03T14:33:39;19.90;44.80
30764;DHT22;17497;51.476;7.770;2023-04-03T14:38:38;19.70;43.10
30764;DHT22;17497;51.476;7.770;2023-04-03T14:41:05;18.40;45.20
30764;DHT22;17497;51.476;7.770;2023-04-03T14:43:41;17.30;48.20
30764;DHT22;17497;51.476;7.770;2023-04-03T14:46:12;16.80;50.20
30764;DHT22;17497;51.476;7.770;2023-04-03T14:48:39;16.00;50.00
30764;DHT22;17497;51.476;7.770;2023-04-03T14:51:06;16.30;49.30
30764;DHT22;17497;51.476;7.770;2023-04-03T14:53:33;16.40;48.70
30764;DHT22;17497;51.476;7.770;2023-04-03T14:56:05;16.90;47.30
30764;DHT22;17497;51.476;7.770;2023-04-03T14:58:37;17.70;48.00
30764;DHT22;17497;51.476;7.770;2023-04-03T15:01:04;18.10;48.00
30764;DHT22;17497;51.476;7.770;2023-04-03T15:03:31;18.90;46.90
30764;DHT22;17497;51.476;7.770;2023-04-03T15:05:58;18.90;45.70
30764;DHT22;17497;51.476;7.770;2023-04-03T15:08:26;19.20;44.90
30764;DHT22;17497;51.476;7.770;2023-04-03T15:10:55;18.90;44.70
30764;DHT22;17497;51.476;7.770;2023-04-03T15:13:23;19.10;45.80
30764;DHT22;17497;51.476;7.770;2023-04-03T15:15:50;19.30;46.30
30764;DHT22;17497;51.476;7.770;2023-04-03T15:18:18;18.60;44.70
30764;DHT22;17497;51.476;7.770;2023-04-03T15:20:45;18.80;43.80
30764;DHT22;17497;51.476;7.770;2023-04-03T15:23:12;18.80;44.70
30764;DHT22;17497;51.476;7.770;2023-04-03T15:25:46;18.40;44.90
30764;DHT22;17497;51.476;7.770;2023-04-03T15:28:18;17.90;44.40
30764;DHT22;17497;51.476;7.770;2023-04-03T15:30:45;17.90;45.10
30764;DHT22;17497;51.476;7.770;2023-04-03T15:33:12;18.50;45.30
30764;DHT22;17497;51.476;7.770;2023-04-03T15:35:39;19.20;42.10
30764;DHT22;17497;51.476;7.770;2023-04-03T15:38:07;19.10;42.10
30764;DHT22;17497;51.476;7.770;2023-04-03T15:40:34;19.30;42.70
30764;DHT22;17497;51.476;7.770;2023-04-03T15:43:01;18.90;42.30
30764;DHT22;17497;51.476;7.770;2023-04-03T15:45:28;18.10;43.30
30764;DHT22;17497;51.476;7.770;2023-04-03T15:47:56;18.10;44.30
30764;DHT22;17497;51.476;7.770;2023-04-03T15:50:22;18.10;44.20
30764;DHT22;17497;51.476;7.770;2023-04-03T15:52:51;17.20;45.90
30764;DHT22;17497;51.476;7.770;2023-04-03T15:55:23;17.80;45.70
30764;DHT22;17497;51.476;7.770;2023-04-03T15:57:53;18.10;44.00
30764;DHT22;17497;51.476;7.770;2023-04-03T16:00:20;18.70;43.10
30764;DHT22;17497;51.476;7.770;2023-04-03T16:02:48;18.80;43.40
30764;DHT22;17497;51.476;7.770;2023-04-03T16:05:15;19.30;42.60
30764;DHT22;17497;51.476;7.770;2023-04-03T16:07:45;18.80;42.40
30764;DHT22;17497;51.476;7.770;2023-04-03T16:10:15;18.60;44.30
30764;DHT22;17497;51.476;7.770;2023-04-03T16:12:42;18.90;42.50
30764;DHT22;17497;51.476;7.770;2023-04-03T16:15:11;19.20;41.40
30764;DHT22;17497;51.476;7.770;2023-04-03T16:17:38;18.40;42.70
30764;DHT22;17497;51.476;7.770;2023-04-03T16:20:07;17.70;43.00
30764;DHT22;17497;51.476;7.770;2023-04-03T16:22:35;17.10;44.70
30764;DHT22;17497;51.476;7.770;2023-04-03T16:25:03;16.50;47.00
30764;DHT22;17497;51.476;7.770;2023-04-03T16:27:30;16.40;45.10
30764;DHT22;17497;51.476;7.770;2023-04-03T16:29:57;16.80;45.10
30764;DHT22;17497;51.476;7.770;2023-04-03T16:32:25;16.70;45.70
30764;DHT22;17497;51.476;7.770;2023-04-03T16:34:52;16.50;46.60
30764;DHT22;17497;51.476;7.770;2023-04-03T16:37:20;15.30;46.90
30764;DHT22;17497;51.476;7.770;2023-04-03T16:39:47;15.10;47.90
30764;DHT22;17497;51.476;7.770;2023-04-03T16:42:13;14.60;48.70
30764;DHT22;17497;51.476;7.770;2023-04-03T16:44:40;14.50;48.60
30764;DHT22;17497;51.476;7.770;2023-04-03T16:47:07;14.50;50.00
30764;DHT22;17497;51.476;7.770;2023-04-03T16:49:34;14.30;48.80
30764;DHT22;17497;51.476;7.770;2023-04-03T16:52:02;13.10;51.10
30764;DHT22;17497;51.476;7.770;2023-04-03T16:54:31;12.40;52.90
30764;DHT22;17497;51.476;7.770;2023-04-03T16:57:00;11.50;54.40
30764;DHT22;17497;51.476;7.770;2023-04-03T16:59:27;11.10;56.20
30764;DHT22;17497;51.476;7.770;2023-04-03T17:01:54;10.60;56.90
30764;DHT22;17497;51.476;7.770;2023-04-03T17:04:22;10.20;58.20
30764;DHT22;17497;51.476;7.770;2023-04-03T17:06:48;9.90;59.20
30764;DHT22;17497;51.476;7.770;2023-04-03T17:09:15;9.60;61.50
30764;DHT22;17497;51.476;7.770;2023-04-03T17:11:42;9.40;60.60
30764;DHT22;17497;51.476;7.770;2023-04-03T17:14:11;9.20;61.80
30764;DHT22;17497;51.476;7.770;2023-04-03T17:16:39;9.10;64.10
30764;DHT22;17497;51.476;7.770;2023-04-03T17:19:05;9.00;64.20
30764;DHT22;17497;51.476;7.770;2023-04-03T17:21:32;8.80;64.40
30764;DHT22;17497;51.476;7.770;2023-04-03T17:24:03;8.70;64.00